sensor_id;sensor_type;location;lat;lon;timestamp;pressure;altitude;pressure_sealevel;temperature;humidity
76553;BME280;65395;53.168;18.156;2023-02-24T00:01:49;100109.23;;;6.07;80.27
76553;BME280;65395;53.168;18.156;2023-02-24T00:04:19;100109.16;;;6.08;80.30
76553;BME280;65395;53.168;18.156;2023-02-24T00:06:46;100105.69;;;6.08;80.27
76553;BME280;65395;53.168;18.156;2023-02-24T00:09:17;100100.52;;;6.08;80.31
76553;BME280;65395;53.168;18.156;2023-02-24T00:11:52;100098.23;;;6.09;80.20
76553;BME280;65395;53.168;18.156;2023-02-24T00:14:19;100093.34;;;6.10;80.17
76553;BME280;65395;53.168;18.156;2023-02-24T00:16:46;100095.55;;;6.09;80.60
76553;BME280;65395;53.168;18.156;2023-02-24T00:19:16;100086.66;;;6.07;80.41
76553;BME280;65395;53.168;18.156;2023-02-24T00:21:43;100087.13;;;6.06;80.64
76553;BME280;65395;53.168;18.156;2023-02-24T00:24:11;100084.69;;;6.04;80.76
76553;BME280;65395;53.168;18.156;2023-02-24T00:26:38;100083.01;;;6.03;80.67
76553;BME280;65395;53.168;18.156;2023-02-24T00:29:08;100084.59;;;6.01;80.71
76553;BME280;65395;53.168;18.156;2023-02-24T00:31:36;100082.61;;;5.98;80.92
76553;BME280;65395;53.168;18.156;2023-02-24T00:34:07;100078.77;;;5.95;81.01
76553;BME280;65395;53.168;18.156;2023-02-24T00:36:34;100073.59;;;5.94;80.99
76553;BME280;65395;53.168;18.156;2023-02-24T00:39:05;100071.65;;;5.94;80.84
76553;BME280;65395;53.168;18.156;2023-02-24T00:41:39;100067.31;;;5.94;81.03
76553;BME280;65395;53.168;18.156;2023-02-24T00:44:12;100067.98;;;5.93;81.09
76553;BME280;65395;53.168;18.156;2023-02-24T00:46:42;100065.22;;;5.92;80.99
76553;BME280;65395;53.168;18.156;2023-02-24T00:49:14;100059.22;;;5.92;81.20
76553;BME280;65395;53.168;18.156;2023-02-24T00:51:46;100058.21;;;5.92;81.22
76553;BME280;65395;53.168;18.156;2023-02-24T00:54:15;100057.23;;;5.92;81.24
76553;BME280;65395;53.168;18.156;2023-02-24T00:56:43;100057.16;;;5.92;81.42
76553;BME280;65395;53.168;18.156;2023-02-24T00:59:12;100049.73;;;5.92;81.21
76553;BME280;65395;53.168;18.156;2023-02-24T01:01:41;100055.13;;;5.93;81.18
76553;BME280;65395;53.168;18.156;2023-02-24T01:04:11;100053.66;;;5.94;81.41
76553;BME280;65395;53.168;18.156;2023-02-24T01:06:42;100058.63;;;5.93;81.98
76553;BME280;65395;53.168;18.156;2023-02-24T01:09:12;100060.46;;;5.91;81.85
76553;BME280;65395;53.168;18.156;2023-02-24T01:11:41;100054.66;;;5.90;82.09
76553;BME280;65395;53.168;18.156;2023-02-24T01:14:20;100056.88;;;5.88;82.51
76553;BME280;65395;53.168;18.156;2023-02-24T01:16:48;100052.21;;;5.87;82.54
76553;BME280;65395;53.168;18.156;2023-02-24T01:19:17;100051.49;;;5.86;82.50
76553;BME280;65395;53.168;18.156;2023-02-24T01:21:44;100049.66;;;5.85;82.88
76553;BME280;65395;53.168;18.156;2023-02-24T01:24:12;100048.46;;;5.85;82.48
76553;BME280;65395;53.168;18.156;2023-02-24T01:26:41;100042.61;;;5.86;82.37
76553;BME280;65395;53.168;18.156;2023-02-24T01:29:08;100037.93;;;5.87;81.95
76553;BME280;65395;53.168;18.156;2023-02-24T01:31:36;100031.11;;;5.91;81.64
76553;BME280;65395;53.168;18.156;2023-02-24T01:34:04;100031.42;;;5.95;81.50
76553;BME280;65395;53.168;18.156;2023-02-24T01:36:32;100031.14;;;5.97;81.47
76553;BME280;65395;53.168;18.156;2023-02-24T01:39:00;100025.73;;;6.00;81.27
76553;BME280;65395;53.168;18.156;2023-02-24T01:41:28;100018.82;;;6.02;81.32
76553;BME280;65395;53.168;18.156;2023-02-24T01:44:03;100011.52;;;6.05;81.25
76553;BME280;65395;53.168;18.156;2023-02-24T01:46:32;100014.83;;;6.04;81.43
76553;BME280;65395;53.168;18.156;2023-02-24T01:49:06;100008.92;;;6.04;81.35
76553;BME280;65395;53.168;18.156;2023-02-24T01:51:40;100007.13;;;6.06;81.06
76553;BME280;65395;53.168;18.156;2023-02-24T01:54:10;100004.77;;;6.07;81.15
76553;BME280;65395;53.168;18.156;2023-02-24T01:56:38;100006.23;;;6.06;81.27
76553;BME280;65395;53.168;18.156;2023-02-24T01:59:08;100005.52;;;6.05;81.35
76553;BME280;65395;53.168;18.156;2023-02-24T02:01:36;99998.77;;;6.05;81.25
76553;BME280;65395;53.168;18.156;2023-02-24T02:04:15;99995.26;;;6.05;81.16
76553;BME280;65395;53.168;18.156;2023-02-24T02:06:45;99990.13;;;6.05;81.24
76553;BME280;65395;53.168;18.156;2023-02-24T02:09:14;99985.89;;;6.06;81.39
76553;BME280;65395;53.168;18.156;2023-02-24T02:11:42;99982.48;;;6.04;81.31
76553;BME280;65395;53.168;18.156;2023-02-24T02:14:17;99980.51;;;6.03;81.34
76553;BME280;65395;53.168;18.156;2023-02-24T02:17:11;99979.27;;;6.01;81.39
76553;BME280;65395;53.168;18.156;2023-02-24T02:22:46;99977.09;;;5.97;81.79
76553;BME280;65395;53.168;18.156;2023-02-24T02:34:33;99966.68;;;5.89;82.13
76553;BME280;65395;53.168;18.156;2023-02-24T02:37:32;99968.63;;;5.87;82.02
76553;BME280;65395;53.168;18.156;2023-02-24T02:40:20;99958.23;;;5.84;81.94
76553;BME280;65395;53.168;18.156;2023-02-24T02:42:58;99960.88;;;5.88;81.95
76553;BME280;65395;53.168;18.156;2023-02-24T02:45:40;99958.21;;;5.88;82.35
76553;BME280;65395;53.168;18.156;2023-02-24T02:48:19;99957.02;;;5.87;82.01
76553;BME280;65395;53.168;18.156;2023-02-24T02:50:54;99953.04;;;5.88;82.08
76553;BME280;65395;53.168;18.156;2023-02-24T02:53:28;99953.09;;;5.87;82.02
76553;BME280;65395;53.168;18.156;2023-02-24T02:56:01;99953.71;;;5.88;82.02
76553;BME280;65395;53.168;18.156;2023-02-24T02:58:33;99954.19;;;5.88;81.96
76553;BME280;65395;53.168;18.156;2023-02-24T03:01:03;99952.98;;;5.90;81.89
76553;BME280;65395;53.168;18.156;2023-02-24T03:03:39;99949.09;;;5.91;81.91
76553;BME280;65395;53.168;18.156;2023-02-24T03:06:13;99947.58;;;5.92;81.95
76553;BME280;65395;53.168;18.156;2023-02-24T03:08:50;99948.88;;;5.92;81.95
76553;BME280;65395;53.168;18.156;2023-02-24T03:11:19;99943.49;;;5.92;81.96
76553;BME280;65395;53.168;18.156;2023-02-24T03:13:47;99940.77;;;5.91;81.98
76553;BME280;65395;53.168;18.156;2023-02-24T03:16:16;99937.64;;;5.90;81.95
76553;BME280;65395;53.168;18.156;2023-02-24T03:18:48;99939.73;;;5.92;81.92
76553;BME280;65395;53.168;18.156;2023-02-24T03:21:27;99935.44;;;5.92;82.12
76553;BME280;65395;53.168;18.156;2023-02-24T03:24:00;99934.71;;;5.92;82.05
76553;BME280;65395;53.168;18.156;2023-02-24T03:26:40;99933.08;;;5.93;82.14
76553;BME280;65395;53.168;18.156;2023-02-24T03:29:15;99929.61;;;5.94;81.94
76553;BME280;65395;53.168;18.156;2023-02-24T03:31:56;99926.36;;;5.96;81.98
76553;BME280;65395;53.168;18.156;2023-02-24T03:34:37;99923.48;;;5.97;81.92
76553;BME280;65395;53.168;18.156;2023-02-24T03:37:09;99921.37;;;5.98;81.93
76553;BME280;65395;53.168;18.156;2023-02-24T03:39:36;99921.95;;;5.98;81.90
76553;BME280;65395;53.168;18.156;2023-02-24T03:42:13;99920.52;;;6.00;82.01
76553;BME280;65395;53.168;18.156;2023-02-24T03:44:43;99921.33;;;5.99;81.88
76553;BME280;65395;53.168;18.156;2023-02-24T03:47:12;99913.73;;;5.98;82.16
76553;BME280;65395;53.168;18.156;2023-02-24T03:49:41;99911.16;;;5.94;82.19
76553;BME280;65395;53.168;18.156;2023-02-24T03:52:25;99911.09;;;5.95;82.09
76553;BME280;65395;53.168;18.156;2023-02-24T03:55:10;99908.77;;;5.96;82.07
76553;BME280;65395;53.168;18.156;2023-02-24T03:58:10;99903.17;;;5.96;82.03
76553;BME280;65395;53.168;18.156;2023-02-24T04:00:57;99899.73;;;5.96;82.24
76553;BME280;65395;53.168;18.156;2023-02-24T04:06:43;99897.77;;;5.92;82.05
76553;BME280;65395;53.168;18.156;2023-02-24T04:09:25;99894.79;;;5.91;82.04
76553;BME280;65395;53.168;18.156;2023-02-24T04:12:08;99887.85;;;5.89;82.21
76553;BME280;65395;53.168;18.156;2023-02-24T04:17:28;99882.56;;;5.88;82.25
76553;BME280;65395;53.168;18.156;2023-02-24T04:20:02;99881.17;;;5.85;82.39
76553;BME280;65395;53.168;18.156;2023-02-24T04:22:46;99877.95;;;5.79;82.48
76553;BME280;65395;53.168;18.156;2023-02-24T04:25:20;99874.52;;;5.76;82.42
76553;BME280;65395;53.168;18.156;2023-02-24T04:27:52;99874.80;;;5.74;82.46
76553;BME280;65395;53.168;18.156;2023-02-24T04:30:21;99873.30;;;5.71;82.37
76553;BME280;65395;53.168;18.156;2023-02-24T04:32:50;99871.67;;;5.72;82.36
76553;BME280;65395;53.168;18.156;2023-02-24T04:35:20;99866.86;;;5.70;82.45
76553;BME280;65395;53.168;18.156;2023-02-24T04:37:49;99869.66;;;5.69;82.38
76553;BME280;65395;53.168;18.156;2023-02-24T04:40:18;99864.26;;;5.68;82.50
76553;BME280;65395;53.168;18.156;2023-02-24T04:42:49;99858.05;;;5.67;82.52
76553;BME280;65395;53.168;18.156;2023-02-24T04:45:21;99859.64;;;5.65;82.47
76553;BME280;65395;53.168;18.156;2023-02-24T04:47:50;99857.27;;;5.65;82.42
76553;BME280;65395;53.168;18.156;2023-02-24T04:50:24;99856.71;;;5.65;82.63
76553;BME280;65395;53.168;18.156;2023-02-24T04:52:54;99856.98;;;5.63;82.61
76553;BME280;65395;53.168;18.156;2023-02-24T04:55:24;99855.53;;;5.62;82.57
76553;BME280;65395;53.168;18.156;2023-02-24T04:57:52;99855.73;;;5.63;82.50
76553;BME280;65395;53.168;18.156;2023-02-24T05:00:19;99851.50;;;5.62;82.63
76553;BME280;65395;53.168;18.156;2023-02-24T05:02:49;99849.14;;;5.60;82.61
76553;BME280;65395;53.168;18.156;2023-02-24T05:05:18;99844.61;;;5.59;82.63
76553;BME280;65395;53.168;18.156;2023-02-24T05:07:52;99844.10;;;5.58;82.64
76553;BME280;65395;53.168;18.156;2023-02-24T05:10:20;99839.85;;;5.59;82.61
76553;BME280;65395;53.168;18.156;2023-02-24T05:12:47;99831.80;;;5.59;82.58
76553;BME280;65395;53.168;18.156;2023-02-24T05:15:15;99829.87;;;5.60;82.52
76553;BME280;65395;53.168;18.156;2023-02-24T05:17:41;99829.49;;;5.60;82.49
76553;BME280;65395;53.168;18.156;2023-02-24T05:20:09;99830.37;;;5.61;82.61
76553;BME280;65395;53.168;18.156;2023-02-24T05:22:49;99825.54;;;5.59;82.61
76553;BME280;65395;53.168;18.156;2023-02-24T05:25:19;99825.70;;;5.58;82.56
76553;BME280;65395;53.168;18.156;2023-02-24T05:27:46;99820.99;;;5.58;82.59
76553;BME280;65395;53.168;18.156;2023-02-24T05:30:13;99821.30;;;5.59;82.59
76553;BME280;65395;53.168;18.156;2023-02-24T05:32:40;99816.69;;;5.59;82.70
76553;BME280;65395;53.168;18.156;2023-02-24T05:35:07;99817.64;;;5.58;82.68
76553;BME280;65395;53.168;18.156;2023-02-24T05:37:38;99816.91;;;5.57;82.64
76553;BME280;65395;53.168;18.156;2023-02-24T05:40:08;99812.20;;;5.57;82.73
76553;BME280;65395;53.168;18.156;2023-02-24T05:42:39;99809.08;;;5.57;82.67
76553;BME280;65395;53.168;18.156;2023-02-24T05:45:08;99810.17;;;5.58;82.70
76553;BME280;65395;53.168;18.156;2023-02-24T05:47:37;99810.05;;;5.61;82.74
76553;BME280;65395;53.168;18.156;2023-02-24T05:50:06;99810.40;;;5.63;82.76
76553;BME280;65395;53.168;18.156;2023-02-24T05:52:34;99808.02;;;5.66;82.73
76553;BME280;65395;53.168;18.156;2023-02-24T05:55:03;99810.61;;;5.69;82.67
76553;BME280;65395;53.168;18.156;2023-02-24T05:57:32;99806.21;;;5.70;82.74
76553;BME280;65395;53.168;18.156;2023-02-24T06:00:01;99805.95;;;5.71;82.64
76553;BME280;65395;53.168;18.156;2023-02-24T06:02:39;99802.86;;;5.71;82.72
76553;BME280;65395;53.168;18.156;2023-02-24T06:05:10;99804.73;;;5.72;82.76
76553;BME280;65395;53.168;18.156;2023-02-24T06:07:57;99805.58;;;5.71;82.92
76553;BME280;65395;53.168;18.156;2023-02-24T06:10:32;99799.67;;;5.71;82.80
76553;BME280;65395;53.168;18.156;2023-02-24T06:13:02;99801.59;;;5.71;82.81
76553;BME280;65395;53.168;18.156;2023-02-24T06:15:29;99801.25;;;5.74;82.85
76553;BME280;65395;53.168;18.156;2023-02-24T06:17:59;99800.52;;;5.76;82.99
76553;BME280;65395;53.168;18.156;2023-02-24T06:20:28;99799.32;;;5.75;82.83
76553;BME280;65395;53.168;18.156;2023-02-24T06:22:55;99797.35;;;5.73;82.94
76553;BME280;65395;53.168;18.156;2023-02-24T06:25:24;99797.15;;;5.72;83.16
76553;BME280;65395;53.168;18.156;2023-02-24T06:27:52;99799.16;;;5.69;83.29
76553;BME280;65395;53.168;18.156;2023-02-24T06:30:22;99798.05;;;5.62;83.22
76553;BME280;65395;53.168;18.156;2023-02-24T06:32:50;99795.60;;;5.55;83.11
76553;BME280;65395;53.168;18.156;2023-02-24T06:35:18;99796.70;;;5.49;83.25
76553;BME280;65395;53.168;18.156;2023-02-24T06:37:46;99796.44;;;5.47;83.15
76553;BME280;65395;53.168;18.156;2023-02-24T06:40:13;99792.32;;;5.45;82.42
76553;BME280;65395;53.168;18.156;2023-02-24T06:42:50;99793.26;;;5.38;82.28
76553;BME280;65395;53.168;18.156;2023-02-24T06:45:22;99789.38;;;5.30;82.21
76553;BME280;65395;53.168;18.156;2023-02-24T06:47:49;99783.98;;;5.25;82.20
76553;BME280;65395;53.168;18.156;2023-02-24T06:50:18;99779.69;;;5.19;82.27
76553;BME280;65395;53.168;18.156;2023-02-24T06:52:46;99782.30;;;5.18;82.27
76553;BME280;65395;53.168;18.156;2023-02-24T06:55:15;99778.70;;;5.17;82.10
76553;BME280;65395;53.168;18.156;2023-02-24T06:57:55;99780.96;;;5.14;82.17
76553;BME280;65395;53.168;18.156;2023-02-24T07:00:26;99776.21;;;5.12;82.04
76553;BME280;65395;53.168;18.156;2023-02-24T07:03:07;99772.89;;;5.09;82.17
76553;BME280;65395;53.168;18.156;2023-02-24T07:05:45;99776.24;;;5.08;82.20
76553;BME280;65395;53.168;18.156;2023-02-24T07:08:24;99774.52;;;5.07;82.11
76553;BME280;65395;53.168;18.156;2023-02-24T07:10:54;99774.15;;;5.08;82.15
76553;BME280;65395;53.168;18.156;2023-02-24T07:13:23;99775.66;;;5.11;82.06
76553;BME280;65395;53.168;18.156;2023-02-24T07:15:50;99774.83;;;5.10;81.83
76553;BME280;65395;53.168;18.156;2023-02-24T07:18:18;99771.48;;;5.09;81.82
76553;BME280;65395;53.168;18.156;2023-02-24T07:20:45;99774.90;;;5.09;81.78
76553;BME280;65395;53.168;18.156;2023-02-24T07:23:14;99768.04;;;5.07;81.52
76553;BME280;65395;53.168;18.156;2023-02-24T07:25:42;99766.85;;;5.06;81.66
76553;BME280;65395;53.168;18.156;2023-02-24T07:28:13;99766.80;;;5.05;81.57
76553;BME280;65395;53.168;18.156;2023-02-24T07:30:40;99761.65;;;5.03;81.42
76553;BME280;65395;53.168;18.156;2023-02-24T07:33:07;99759.94;;;5.02;81.43
76553;BME280;65395;53.168;18.156;2023-02-24T07:35:34;99761.45;;;5.00;81.54
76553;BME280;65395;53.168;18.156;2023-02-24T07:38:03;99762.14;;;4.97;81.56
76553;BME280;65395;53.168;18.156;2023-02-24T07:40:32;99764.94;;;4.94;81.66
76553;BME280;65395;53.168;18.156;2023-02-24T07:43:00;99760.98;;;4.91;81.63
76553;BME280;65395;53.168;18.156;2023-02-24T07:45:27;99764.27;;;4.90;81.88
76553;BME280;65395;53.168;18.156;2023-02-24T07:47:55;99771.39;;;4.87;81.47
76553;BME280;65395;53.168;18.156;2023-02-24T07:50:22;99770.09;;;4.75;81.57
76553;BME280;65395;53.168;18.156;2023-02-24T07:52:49;99771.07;;;4.65;81.03
76553;BME280;65395;53.168;18.156;2023-02-24T07:55:17;99768.77;;;4.53;80.31
76553;BME280;65395;53.168;18.156;2023-02-24T07:57:46;99765.02;;;4.46;80.28
76553;BME280;65395;53.168;18.156;2023-02-24T08:00:15;99768.25;;;4.36;78.92
76553;BME280;65395;53.168;18.156;2023-02-24T08:02:46;99769.05;;;4.23;79.32
76553;BME280;65395;53.168;18.156;2023-02-24T08:05:15;99770.42;;;4.16;78.82
76553;BME280;65395;53.168;18.156;2023-02-24T08:07:44;99767.27;;;4.08;78.43
76553;BME280;65395;53.168;18.156;2023-02-24T08:10:17;99764.97;;;3.99;77.94
76553;BME280;65395;53.168;18.156;2023-02-24T08:12:54;99754.97;;;3.98;77.28
76553;BME280;65395;53.168;18.156;2023-02-24T08:15:24;99749.81;;;3.99;77.84
76553;BME280;65395;53.168;18.156;2023-02-24T08:17:56;99751.92;;;4.01;77.43
76553;BME280;65395;53.168;18.156;2023-02-24T08:20:28;99745.41;;;4.03;76.84
76553;BME280;65395;53.168;18.156;2023-02-24T08:23:01;99742.73;;;4.07;76.47
76553;BME280;65395;53.168;18.156;2023-02-24T08:25:32;99748.70;;;4.10;75.78
76553;BME280;65395;53.168;18.156;2023-02-24T08:28:05;99745.72;;;4.09;76.19
76553;BME280;65395;53.168;18.156;2023-02-24T08:30:34;99746.86;;;4.09;75.48
76553;BME280;65395;53.168;18.156;2023-02-24T08:33:07;99743.48;;;4.01;73.63
76553;BME280;65395;53.168;18.156;2023-02-24T08:35:37;99738.98;;;3.90;74.45
76553;BME280;65395;53.168;18.156;2023-02-24T08:38:08;99741.00;;;3.88;74.22
76553;BME280;65395;53.168;18.156;2023-02-24T08:40:38;99739.60;;;3.85;73.49
76553;BME280;65395;53.168;18.156;2023-02-24T08:43:23;99732.40;;;3.88;74.04
76553;BME280;65395;53.168;18.156;2023-02-24T08:46:15;99731.98;;;3.94;73.97
76553;BME280;65395;53.168;18.156;2023-02-24T08:48:47;99734.16;;;3.98;73.27
76553;BME280;65395;53.168;18.156;2023-02-24T08:51:20;99732.27;;;4.03;73.03
76553;BME280;65395;53.168;18.156;2023-02-24T08:53:50;99732.95;;;4.02;71.45
76553;BME280;65395;53.168;18.156;2023-02-24T08:56:23;99733.59;;;3.97;71.65
76553;BME280;65395;53.168;18.156;2023-02-24T08:58:54;99723.54;;;3.92;71.85
76553;BME280;65395;53.168;18.156;2023-02-24T09:01:25;99718.05;;;3.92;73.08
76553;BME280;65395;53.168;18.156;2023-02-24T09:03:55;99720.08;;;3.99;72.56
76553;BME280;65395;53.168;18.156;2023-02-24T09:06:34;99723.71;;;4.04;71.28
76553;BME280;65395;53.168;18.156;2023-02-24T09:09:02;99724.75;;;4.07;71.09
76553;BME280;65395;53.168;18.156;2023-02-24T09:11:39;99716.67;;;4.07;71.09
76553;BME280;65395;53.168;18.156;2023-02-24T09:14:15;99700.55;;;4.09;71.94
76553;BME280;65395;53.168;18.156;2023-02-24T09:16:46;99697.92;;;4.18;72.33
76553;BME280;65395;53.168;18.156;2023-02-24T09:19:23;99702.66;;;4.31;72.04
76553;BME280;65395;53.168;18.156;2023-02-24T09:22:00;99703.16;;;4.38;71.30
76553;BME280;65395;53.168;18.156;2023-02-24T09:24:37;99696.61;;;4.34;71.63
76553;BME280;65395;53.168;18.156;2023-02-24T09:27:04;99689.71;;;4.36;72.44
76553;BME280;65395;53.168;18.156;2023-02-24T09:29:32;99689.39;;;4.42;72.00
76553;BME280;65395;53.168;18.156;2023-02-24T09:32:02;99685.80;;;4.36;71.53
76553;BME280;65395;53.168;18.156;2023-02-24T09:34:32;99689.42;;;4.30;71.17
76553;BME280;65395;53.168;18.156;2023-02-24T09:37:00;99676.84;;;4.19;71.21
76553;BME280;65395;53.168;18.156;2023-02-24T09:39:33;99666.25;;;4.15;71.91
76553;BME280;65395;53.168;18.156;2023-02-24T09:42:11;99662.80;;;4.19;72.80
76553;BME280;65395;53.168;18.156;2023-02-24T09:45:02;99663.61;;;4.27;72.46
76553;BME280;65395;53.168;18.156;2023-02-24T09:47:40;99665.13;;;4.26;71.96
76553;BME280;65395;53.168;18.156;2023-02-24T09:50:35;99662.80;;;4.20;70.66
76553;BME280;65395;53.168;18.156;2023-02-24T09:53:14;99658.92;;;4.09;71.55
76553;BME280;65395;53.168;18.156;2023-02-24T09:55:56;99655.77;;;4.04;72.06
76553;BME280;65395;53.168;18.156;2023-02-24T09:58:35;99657.90;;;4.05;71.99
76553;BME280;65395;53.168;18.156;2023-02-24T10:04:04;99654.23;;;3.96;71.76
76553;BME280;65395;53.168;18.156;2023-02-24T10:06:38;99650.27;;;3.94;72.47
76553;BME280;65395;53.168;18.156;2023-02-24T10:12:08;99646.55;;;3.99;72.46
76553;BME280;65395;53.168;18.156;2023-02-24T10:14:45;99641.43;;;4.01;72.67
76553;BME280;65395;53.168;18.156;2023-02-24T10:17:16;99638.69;;;4.07;72.48
76553;BME280;65395;53.168;18.156;2023-02-24T10:19:58;99636.82;;;4.06;71.67
76553;BME280;65395;53.168;18.156;2023-02-24T10:22:36;99624.80;;;4.02;72.20
76553;BME280;65395;53.168;18.156;2023-02-24T10:25:18;99623.27;;;4.07;72.97
76553;BME280;65395;53.168;18.156;2023-02-24T10:27:59;99620.14;;;4.18;72.51
76553;BME280;65395;53.168;18.156;2023-02-24T10:30:37;99615.94;;;4.24;71.82
76553;BME280;65395;53.168;18.156;2023-02-24T10:33:18;99617.87;;;4.26;72.19
76553;BME280;65395;53.168;18.156;2023-02-24T10:35:46;99610.62;;;4.23;71.33
76553;BME280;65395;53.168;18.156;2023-02-24T10:38:13;99606.05;;;4.17;71.59
76553;BME280;65395;53.168;18.156;2023-02-24T10:40:52;99608.42;;;4.15;71.25
76553;BME280;65395;53.168;18.156;2023-02-24T10:43:24;99606.98;;;4.12;71.67
76553;BME280;65395;53.168;18.156;2023-02-24T10:46:01;99596.78;;;4.18;71.88
76553;BME280;65395;53.168;18.156;2023-02-24T10:48:53;99593.30;;;4.23;70.72
76553;BME280;65395;53.168;18.156;2023-02-24T10:51:35;99597.02;;;4.31;70.39
76553;BME280;65395;53.168;18.156;2023-02-24T10:54:19;99594.95;;;4.36;70.17
76553;BME280;65395;53.168;18.156;2023-02-24T10:56:49;99588.58;;;4.40;69.51
76553;BME280;65395;53.168;18.156;2023-02-24T10:59:27;99580.52;;;4.43;68.97
76553;BME280;65395;53.168;18.156;2023-02-24T11:02:16;99581.38;;;4.40;68.25
76553;BME280;65395;53.168;18.156;2023-02-24T11:04:55;99565.57;;;4.31;67.50
76553;BME280;65395;53.168;18.156;2023-02-24T11:07:43;99566.67;;;4.29;68.52
76553;BME280;65395;53.168;18.156;2023-02-24T11:10:21;99556.83;;;4.26;68.30
76553;BME280;65395;53.168;18.156;2023-02-24T11:12:53;99546.77;;;4.23;68.61
76553;BME280;65395;53.168;18.156;2023-02-24T11:15:35;99546.10;;;4.21;68.90
76553;BME280;65395;53.168;18.156;2023-02-24T11:18:16;99546.25;;;4.23;69.57
76553;BME280;65395;53.168;18.156;2023-02-24T11:20:47;99546.51;;;4.26;69.86
76553;BME280;65395;53.168;18.156;2023-02-24T11:23:22;99549.35;;;4.30;69.06
76553;BME280;65395;53.168;18.156;2023-02-24T11:25:52;99541.58;;;4.29;69.05
76553;BME280;65395;53.168;18.156;2023-02-24T11:28:40;99545.52;;;4.23;68.46
76553;BME280;65395;53.168;18.156;2023-02-24T11:31:30;99530.55;;;4.14;68.77
76553;BME280;65395;53.168;18.156;2023-02-24T11:34:30;99525.95;;;4.06;69.09
76553;BME280;65395;53.168;18.156;2023-02-24T11:40:02;99519.38;;;3.98;69.31
76553;BME280;65395;53.168;18.156;2023-02-24T11:42:41;99510.48;;;3.92;69.40
76553;BME280;65395;53.168;18.156;2023-02-24T11:45:20;99508.77;;;3.90;69.50
76553;BME280;65395;53.168;18.156;2023-02-24T11:47:54;99504.10;;;3.88;69.95
76553;BME280;65395;53.168;18.156;2023-02-24T11:50:42;99495.74;;;3.91;70.17
76553;BME280;65395;53.168;18.156;2023-02-24T11:53:35;99494.90;;;3.91;69.54
76553;BME280;65395;53.168;18.156;2023-02-24T11:56:23;99488.77;;;3.89;69.11
76553;BME280;65395;53.168;18.156;2023-02-24T11:59:03;99485.52;;;3.91;69.35
76553;BME280;65395;53.168;18.156;2023-02-24T12:01:39;99486.08;;;3.95;68.89
76553;BME280;65395;53.168;18.156;2023-02-24T12:04:16;99483.69;;;3.94;68.63
76553;BME280;65395;53.168;18.156;2023-02-24T12:06:58;99486.70;;;3.94;68.99
76553;BME280;65395;53.168;18.156;2023-02-24T12:09:31;99481.96;;;3.94;69.16
76553;BME280;65395;53.168;18.156;2023-02-24T12:12:10;99492.34;;;3.94;68.18
76553;BME280;65395;53.168;18.156;2023-02-24T12:14:51;99484.90;;;3.90;67.63
76553;BME280;65395;53.168;18.156;2023-02-24T12:17:30;99479.65;;;3.87;67.84
76553;BME280;65395;53.168;18.156;2023-02-24T12:20:05;99481.02;;;3.85;66.63
76553;BME280;65395;53.168;18.156;2023-02-24T12:22:41;99476.95;;;3.85;65.75
76553;BME280;65395;53.168;18.156;2023-02-24T12:25:12;99470.88;;;3.90;66.67
76553;BME280;65395;53.168;18.156;2023-02-24T12:27:53;99470.95;;;3.96;65.42
76553;BME280;65395;53.168;18.156;2023-02-24T12:33:36;99462.92;;;3.96;65.20
76553;BME280;65395;53.168;18.156;2023-02-24T12:36:24;99457.98;;;3.95;64.84
76553;BME280;65395;53.168;18.156;2023-02-24T12:39:02;99456.56;;;3.94;64.26
76553;BME280;65395;53.168;18.156;2023-02-24T12:41:53;99456.85;;;3.90;65.21
76553;BME280;65395;53.168;18.156;2023-02-24T12:44:30;99458.99;;;3.88;65.08
76553;BME280;65395;53.168;18.156;2023-02-24T12:47:08;99450.11;;;3.83;64.81
76553;BME280;65395;53.168;18.156;2023-02-24T12:49:53;99447.58;;;3.80;65.22
76553;BME280;65395;53.168;18.156;2023-02-24T12:52:38;99441.70;;;3.76;65.00
76553;BME280;65395;53.168;18.156;2023-02-24T12:55:24;99435.27;;;3.74;65.64
76553;BME280;65395;53.168;18.156;2023-02-24T12:58:07;99432.62;;;3.72;65.23
76553;BME280;65395;53.168;18.156;2023-02-24T13:00:50;99432.68;;;3.70;65.51
76553;BME280;65395;53.168;18.156;2023-02-24T13:03:34;99430.27;;;3.70;65.75
76553;BME280;65395;53.168;18.156;2023-02-24T13:06:13;99420.27;;;3.71;65.34
76553;BME280;65395;53.168;18.156;2023-02-24T13:11:43;99406.94;;;3.78;65.40
76553;BME280;65395;53.168;18.156;2023-02-24T13:14:21;99406.45;;;3.80;65.05
76553;BME280;65395;53.168;18.156;2023-02-24T13:16:49;99402.99;;;3.83;66.03
76553;BME280;65395;53.168;18.156;2023-02-24T13:19:20;99400.52;;;3.89;65.52
76553;BME280;65395;53.168;18.156;2023-02-24T13:22:18;99400.33;;;3.92;65.72
76553;BME280;65395;53.168;18.156;2023-02-24T13:24:58;99397.13;;;3.95;64.97
76553;BME280;65395;53.168;18.156;2023-02-24T13:27:33;99387.73;;;3.97;64.76
76553;BME280;65395;53.168;18.156;2023-02-24T13:30:27;99385.67;;;4.00;65.26
76553;BME280;65395;53.168;18.156;2023-02-24T13:35:40;99375.50;;;3.95;65.39
76553;BME280;65395;53.168;18.156;2023-02-24T13:38:21;99375.14;;;3.93;65.95
76553;BME280;65395;53.168;18.156;2023-02-24T13:40:50;99378.55;;;3.90;65.60
76553;BME280;65395;53.168;18.156;2023-02-24T13:43:27;99367.48;;;3.85;65.74
76553;BME280;65395;53.168;18.156;2023-02-24T13:45:58;99367.11;;;3.85;66.16
76553;BME280;65395;53.168;18.156;2023-02-24T13:48:44;99359.06;;;3.87;66.20
76553;BME280;65395;53.168;18.156;2023-02-24T13:54:30;99357.54;;;3.99;65.81
76553;BME280;65395;53.168;18.156;2023-02-24T13:57:23;99350.75;;;3.99;65.93
76553;BME280;65395;53.168;18.156;2023-02-24T14:02:45;99343.89;;;4.08;66.17
76553;BME280;65395;53.168;18.156;2023-02-24T14:05:24;99344.45;;;4.15;66.12
76553;BME280;65395;53.168;18.156;2023-02-24T14:07:53;99337.27;;;4.19;66.06
76553;BME280;65395;53.168;18.156;2023-02-24T14:10:22;99333.95;;;4.24;66.60
76553;BME280;65395;53.168;18.156;2023-02-24T14:13:05;99330.67;;;4.29;66.09
76553;BME280;65395;53.168;18.156;2023-02-24T14:15:33;99330.30;;;4.29;66.00